createdAt,value
2019-01-25T00:02:25.673Z,78.73
2019-01-25T00:05:06.796Z,77.67
2019-01-25T00:07:47.357Z,79.43
2019-01-25T00:10:28.402Z,79.50
2019-01-25T00:13:09.432Z,86.63
2019-01-25T00:15:51.731Z,81.87
2019-01-25T00:18:32.468Z,80.97
2019-01-25T00:21:12.996Z,81.50
2019-01-25T00:23:54.189Z,76.90
2019-01-25T00:26:35.291Z,81.47
2019-01-25T00:29:16.131Z,84.43
2019-01-25T00:31:56.924Z,80.07
2019-01-25T00:34:37.442Z,86.57
2019-01-25T00:37:17.902Z,80.27
2019-01-25T00:40:05.975Z,85.10
2019-01-25T00:42:41.693Z,79.50
2019-01-25T00:45:22.420Z,77.20
2019-01-25T00:47:51.003Z,88.90
2019-01-25T00:50:38.905Z,85.87
2019-01-25T00:53:19.847Z,82.70
2019-01-25T00:56:00.697Z,79.67
2019-01-25T00:58:29.263Z,85.30
2019-01-25T01:01:17.225Z,81.43
2019-01-25T01:03:57.638Z,85.37
2019-01-25T01:06:38.440Z,84.20
2019-01-25T01:09:19.199Z,74.60
2019-01-25T01:11:59.910Z,86.07
2019-01-25T01:14:40.664Z,78.43
2019-01-25T01:17:21.753Z,82.77
2019-01-25T01:20:02.669Z,96.67
2019-01-25T01:22:43.522Z,82.73
2019-01-25T01:25:24.025Z,76.83
2019-01-25T01:28:04.791Z,78.23
2019-01-25T01:30:45.281Z,82.20
2019-01-25T01:33:26.399Z,81.40
2019-01-25T01:36:07.093Z,83.77
2019-01-25T01:38:47.771Z,85.23
2019-01-25T01:41:28.486Z,79.93
2019-01-25T01:44:09.348Z,76.37
2019-01-25T01:46:50.227Z,83.53
2019-01-25T01:49:31.439Z,79.13
2019-01-25T01:52:12.221Z,85.77
2019-01-25T01:54:53.292Z,73.27
2019-01-25T01:57:34.108Z,77.30
2019-01-25T02:00:15.054Z,78.73
2019-01-25T02:02:56.146Z,77.27
2019-01-25T02:05:37.274Z,80.37
2019-01-25T02:08:17.739Z,73.53
2019-01-25T02:10:58.541Z,86.30
2019-01-25T02:13:39.190Z,82.57
2019-01-25T02:16:20.344Z,77.20
2019-01-25T02:19:01.514Z,84.70
2019-01-25T02:27:39.464Z,78.40
2019-01-25T02:30:20.369Z,75.97
2019-01-25T02:33:01.307Z,72.13
2019-01-25T02:35:41.897Z,78.47
2019-01-25T02:38:22.775Z,80.80
2019-01-25T02:41:03.437Z,75.97
2019-01-25T02:43:44.253Z,76.60
2019-01-25T02:46:24.841Z,79.20
2019-01-25T02:49:05.667Z,80.50
2019-01-25T02:51:46.580Z,78.83
2019-01-25T02:54:27.460Z,75.77
2019-01-25T02:57:08.424Z,80.00
2019-01-25T02:59:49.234Z,83.27
2019-01-25T03:02:30.596Z,81.47
2019-01-25T03:05:11.398Z,74.77
2019-01-25T03:07:52.394Z,77.57
2019-01-25T03:10:32.930Z,79.13
2019-01-25T03:13:14.005Z,78.73
2019-01-25T03:15:54.810Z,81.63
2019-01-25T03:18:35.532Z,82.13
2019-01-25T03:21:16.581Z,89.27
2019-01-25T03:23:57.673Z,88.10
2019-01-25T03:26:38.331Z,85.30
2019-01-25T03:29:19.405Z,86.17
2019-01-25T03:32:00.816Z,80.87
2019-01-25T03:34:29.754Z,83.77
2019-01-25T03:37:17.925Z,87.33
2019-01-25T03:39:58.768Z,89.03
2019-01-25T03:42:39.885Z,78.30
2019-01-25T03:45:20.663Z,84.70
2019-01-25T03:48:01.423Z,88.20
2019-01-25T03:50:42.069Z,78.70
2019-01-25T03:53:22.623Z,83.87
2019-01-25T03:56:03.161Z,93.03
2019-01-25T03:58:43.925Z,89.73
2019-01-25T04:01:24.757Z,91.67
2019-01-25T04:04:05.273Z,89.03
2019-01-25T04:06:45.592Z,91.67
2019-01-25T04:09:26.065Z,86.47
2019-01-25T04:12:07.158Z,82.03
2019-01-25T04:14:47.899Z,89.43
2019-01-25T04:17:28.507Z,92.70
2019-01-25T04:20:09.318Z,96.03
2019-01-25T04:22:50.193Z,92.93
2019-01-25T04:25:31.113Z,90.67
2019-01-25T04:28:11.929Z,85.63
2019-01-25T04:30:52.526Z,87.73
2019-01-25T04:33:33.107Z,96.70
2019-01-25T04:36:13.841Z,89.23
2019-01-25T04:38:54.522Z,84.73
2019-01-25T04:41:35.458Z,88.33
2019-01-25T04:44:16.376Z,89.93
2019-01-25T04:46:57.281Z,91.10
2019-01-25T04:49:37.657Z,88.73
2019-01-25T04:52:18.611Z,91.57
2019-01-25T04:54:59.129Z,88.33
2019-01-25T04:57:39.884Z,85.13
2019-01-25T05:00:20.863Z,86.57
2019-01-25T05:03:01.577Z,93.03
2019-01-25T05:05:42.532Z,90.07
2019-01-25T05:08:23.097Z,86.53
2019-01-25T05:11:03.770Z,77.50
2019-01-25T05:13:44.408Z,82.40
2019-01-25T05:16:25.371Z,88.87
2019-01-25T05:19:06.364Z,80.73
2019-01-25T05:21:47.243Z,82.30
2019-01-25T05:24:27.832Z,86.13
2019-01-25T05:27:08.335Z,85.10
2019-01-25T05:29:49.307Z,86.93
2019-01-25T05:32:29.880Z,85.77
2019-01-25T05:35:10.774Z,86.17
2019-01-25T05:37:51.308Z,81.60
2019-01-25T05:40:32.040Z,83.07
2019-01-25T05:43:12.708Z,81.53
2019-01-25T05:45:53.336Z,87.27
2019-01-25T05:48:34.087Z,84.17
2019-01-25T05:51:14.701Z,81.30
2019-01-25T05:53:55.369Z,90.07
2019-01-25T05:56:36.191Z,82.97
2019-01-25T05:59:18.536Z,85.13
2019-01-25T06:01:59.516Z,84.13
2019-01-25T06:04:40.099Z,79.53
2019-01-25T06:07:20.890Z,81.20
2019-01-25T06:10:01.462Z,86.23
2019-01-25T06:12:42.544Z,79.40
2019-01-25T06:15:24.948Z,81.80
2019-01-25T06:18:05.872Z,88.57
2019-01-25T06:20:46.664Z,84.10
2019-01-25T06:23:27.728Z,88.67
2019-01-25T06:26:08.589Z,84.93
2019-01-25T06:28:37.175Z,81.23
2019-01-25T06:31:24.979Z,82.53
2019-01-25T06:34:12.764Z,86.60
2019-01-25T06:36:53.120Z,82.90
2019-01-25T06:39:33.848Z,78.33
2019-01-25T06:42:14.936Z,81.80
2019-01-25T06:44:55.620Z,89.03
2019-01-25T06:47:36.509Z,84.50
2019-01-25T06:50:17.083Z,81.00
2019-01-25T06:52:57.835Z,73.23
2019-01-25T06:55:38.746Z,80.17
2019-01-25T06:58:26.480Z,81.80
2019-01-25T07:01:33.465Z,78.77
2019-01-25T07:04:14.144Z,81.17
2019-01-25T07:06:55.134Z,80.10
2019-01-25T07:09:35.949Z,76.30
2019-01-25T07:12:16.392Z,74.77
2019-01-25T07:14:57.197Z,79.77
2019-01-25T07:17:38.294Z,76.80
2019-01-25T07:20:19.048Z,76.10
2019-01-25T07:22:59.455Z,74.10
2019-01-25T07:25:40.255Z,82.60
2019-01-25T07:28:21.022Z,80.73
2019-01-25T07:31:01.905Z,79.70
2019-01-25T07:33:42.756Z,83.93
2019-01-25T07:36:23.498Z,83.03
2019-01-25T07:39:04.762Z,81.40
2019-01-25T07:41:45.783Z,77.60
2019-01-25T07:44:27.155Z,75.13
2019-01-25T07:47:08.064Z,79.07
2019-01-25T07:49:48.683Z,80.30
2019-01-25T07:52:29.420Z,76.97
2019-01-25T07:55:10.352Z,79.43
2019-01-25T07:57:50.808Z,76.90
2019-01-25T08:00:31.375Z,82.80
2019-01-25T08:03:12.232Z,86.53
2019-01-25T08:05:52.849Z,80.17
2019-01-25T08:08:21.427Z,84.47
2019-01-25T08:10:50.042Z,82.90
2019-01-25T08:13:18.582Z,81.40
2019-01-25T08:15:47.274Z,84.93
2019-01-25T08:18:15.894Z,84.13
2019-01-25T08:20:44.732Z,84.93
2019-01-25T08:23:13.484Z,90.53
2019-01-25T08:25:42.487Z,93.13
2019-01-25T08:28:11.614Z,90.67
2019-01-25T08:30:40.272Z,82.47
2019-01-25T08:33:08.986Z,86.93
2019-01-25T08:35:37.772Z,90.77
2019-01-25T08:38:06.717Z,94.07
2019-01-25T08:40:35.458Z,90.33
2019-01-25T08:43:04.659Z,86.97
2019-01-25T08:45:33.305Z,94.50
2019-01-25T08:48:01.854Z,94.03
2019-01-25T08:50:30.521Z,98.20
2019-01-25T08:52:59.349Z,97.50
2019-01-25T08:55:28.049Z,105.50
2019-01-25T08:57:56.753Z,91.10
2019-01-25T09:00:26.396Z,90.70
2019-01-25T09:02:55.149Z,90.30
2019-01-25T09:05:23.920Z,91.17
2019-01-25T09:07:52.531Z,103.77
2019-01-25T09:10:23.239Z,86.20
2019-01-25T09:12:51.806Z,80.47
2019-01-25T09:18:45.524Z,71.30
2019-01-25T09:21:26.322Z,80.37
2019-01-25T09:24:07.312Z,81.97
2019-01-25T09:26:48.227Z,90.60
2019-01-25T09:29:29.028Z,73.37
2019-01-25T09:32:10.009Z,65.53
2019-01-25T09:34:50.553Z,59.00
2019-01-25T09:37:31.682Z,59.80
2019-01-25T09:40:12.176Z,69.03
2019-01-25T09:42:55.103Z,72.07
2019-01-25T09:45:35.921Z,52.33
2019-01-25T09:48:17.001Z,62.27
2019-01-25T09:50:58.017Z,53.17
2019-01-25T09:53:38.867Z,60.60
2019-01-25T09:56:19.648Z,61.87
2019-01-25T09:58:59.867Z,49.80
2019-01-25T10:01:40.749Z,54.63
2019-01-25T10:04:22.564Z,65.77
2019-01-25T10:07:03.462Z,60.77
2019-01-25T10:09:44.393Z,64.40
2019-01-25T10:12:25.154Z,66.43
2019-01-25T10:15:05.978Z,65.13
2019-01-25T10:17:46.853Z,63.47
2019-01-25T10:20:27.716Z,50.77
2019-01-25T10:23:08.299Z,54.77
2019-01-25T10:25:49.027Z,55.33
2019-01-25T10:28:29.950Z,55.23
2019-01-25T10:31:10.563Z,68.30
2019-01-25T10:33:51.146Z,57.70
2019-01-25T10:36:31.481Z,69.83
2019-01-25T10:39:12.614Z,71.07
2019-01-25T10:41:53.594Z,70.40
2019-01-25T10:44:34.204Z,67.23
2019-01-25T10:47:14.691Z,71.13
2019-01-25T10:49:55.765Z,61.93
2019-01-25T10:52:36.280Z,65.57
2019-01-25T10:55:17.201Z,65.80
2019-01-25T10:57:58.062Z,70.30
2019-01-25T11:00:38.935Z,67.10
2019-01-25T11:03:19.736Z,64.27
2019-01-25T11:06:00.184Z,55.97
2019-01-25T11:08:40.866Z,68.97
2019-01-25T11:11:21.564Z,74.73
2019-01-25T11:14:02.552Z,70.37
2019-01-25T11:16:43.483Z,70.33
2019-01-25T11:19:24.191Z,73.40
2019-01-25T11:22:05.287Z,68.97
2019-01-25T11:24:45.931Z,76.87
2019-01-25T11:27:26.843Z,76.40
2019-01-25T11:30:07.686Z,82.03
2019-01-25T11:32:48.831Z,71.30
2019-01-25T11:35:29.646Z,77.53
2019-01-25T11:38:10.207Z,72.10
2019-01-25T11:40:50.604Z,74.57
2019-01-25T11:43:31.645Z,67.60
2019-01-25T11:46:12.097Z,74.53
2019-01-25T11:48:52.582Z,79.60
2019-01-25T11:51:33.686Z,78.40
2019-01-25T11:54:14.452Z,76.37
2019-01-25T11:56:55.117Z,72.90
2019-01-25T11:59:35.807Z,70.53
2019-01-25T12:02:20.858Z,74.13
2019-01-25T12:04:58.769Z,70.40
2019-01-25T12:07:39.795Z,76.70
2019-01-25T12:10:20.765Z,67.77
2019-01-25T12:13:01.615Z,70.67
2019-01-25T12:15:42.478Z,73.03
2019-01-25T12:18:23.379Z,70.97
2019-01-25T12:21:04.204Z,77.40
2019-01-25T12:23:45.013Z,74.40
2019-01-25T12:26:25.864Z,68.93
2019-01-25T12:29:07.720Z,72.03
2019-01-25T12:31:48.463Z,71.57
2019-01-25T12:34:29.592Z,70.70
2019-01-25T12:37:10.491Z,48.57
2019-01-25T12:39:51.025Z,71.27
2019-01-25T12:42:31.752Z,67.80
2019-01-25T12:45:12.374Z,65.57
2019-01-25T12:48:00.353Z,64.30
2019-01-25T12:50:41.085Z,70.40
2019-01-25T12:53:21.685Z,70.10
2019-01-25T12:56:02.379Z,61.77
2019-01-25T12:58:43.413Z,70.60
2019-01-25T13:01:23.802Z,76.97
2019-01-25T13:04:04.385Z,68.77
2019-01-25T13:06:45.245Z,68.97
2019-01-25T13:09:26.064Z,59.67
2019-01-25T13:12:06.904Z,62.83
2019-01-25T13:14:47.706Z,66.60
2019-01-25T13:17:28.805Z,63.33
2019-01-25T13:20:09.678Z,67.67
2019-01-25T13:22:50.573Z,58.47
2019-01-25T13:25:31.365Z,62.90
2019-01-25T13:28:12.010Z,61.10
2019-01-25T13:30:52.968Z,62.13
2019-01-25T13:33:33.833Z,64.63
2019-01-25T13:36:14.694Z,67.30
2019-01-25T13:38:55.265Z,70.93
2019-01-25T13:41:36.171Z,64.93
2019-01-25T13:44:17.071Z,63.10
2019-01-25T13:46:57.613Z,65.90
2019-01-25T13:49:38.015Z,68.60
2019-01-25T13:52:18.783Z,68.43
2019-01-25T13:55:00.047Z,71.63
2019-01-25T13:57:41.200Z,70.63
2019-01-25T14:00:22.907Z,69.07
2019-01-25T14:03:04.094Z,76.17
2019-01-25T14:05:44.794Z,65.20
2019-01-25T14:08:23.483Z,84.10
2019-01-25T14:11:03.892Z,80.20
2019-01-25T14:13:46.953Z,72.83
2019-01-25T14:16:27.122Z,67.40
2019-01-25T14:19:07.679Z,62.90
2019-01-25T14:21:48.531Z,73.43
2019-01-25T14:24:29.427Z,76.77
2019-01-25T14:27:10.263Z,66.90
2019-01-25T14:29:51.303Z,64.60
2019-01-25T14:32:32.305Z,66.23
2019-01-25T14:35:12.917Z,64.57
2019-01-25T14:37:53.757Z,70.97
2019-01-25T14:40:34.627Z,65.23
2019-01-25T14:43:15.308Z,73.77
2019-01-25T14:45:56.689Z,62.23
2019-01-25T14:48:38.308Z,58.80
2019-01-25T14:51:19.410Z,61.47
2019-01-25T14:54:00.332Z,47.00
2019-01-25T14:56:40.966Z,57.27
2019-01-25T14:59:21.858Z,62.97
2019-01-25T15:02:02.369Z,56.20
2019-01-25T15:04:43.442Z,64.57
2019-01-25T15:07:23.894Z,52.20
2019-01-25T15:10:04.849Z,59.30
2019-01-25T15:12:45.601Z,65.43
2019-01-25T15:15:26.137Z,68.77
2019-01-25T15:18:07.047Z,68.30
2019-01-25T15:20:47.353Z,54.70
2019-01-25T15:23:28.489Z,67.93
2019-01-25T15:26:09.094Z,64.03
2019-01-25T15:28:52.552Z,66.83
2019-01-25T15:31:33.576Z,66.77
2019-01-25T15:34:14.450Z,68.33
2019-01-25T15:36:55.019Z,64.60
2019-01-25T15:39:35.737Z,61.43
2019-01-25T15:42:16.324Z,61.83
2019-01-25T15:44:56.932Z,64.93
2019-01-25T15:47:37.423Z,54.47
2019-01-25T15:50:18.335Z,65.83
2019-01-25T15:52:59.260Z,56.27
2019-01-25T15:55:39.910Z,72.80
2019-01-25T15:58:20.581Z,62.67
2019-01-25T16:01:01.436Z,57.27
2019-01-25T16:03:42.450Z,68.03
2019-01-25T16:06:23.279Z,69.87
2019-01-25T16:09:04.880Z,65.67
2019-01-25T16:11:45.330Z,68.00
2019-01-25T16:14:26.363Z,67.53
2019-01-25T16:17:07.333Z,61.80
2019-01-25T16:19:48.271Z,59.60
2019-01-25T16:22:29.214Z,63.07
2019-01-25T16:25:10.104Z,50.63
2019-01-25T16:27:50.854Z,50.53
2019-01-25T16:30:31.395Z,63.40
2019-01-25T16:33:11.999Z,48.80
2019-01-25T16:35:52.821Z,56.77
2019-01-25T16:38:34.838Z,53.17
2019-01-25T16:41:15.447Z,51.60
2019-01-25T16:43:57.976Z,55.47
2019-01-25T16:46:38.655Z,49.90
2019-01-25T16:49:19.370Z,51.27
2019-01-25T16:52:00.088Z,48.47
2019-01-25T16:54:40.547Z,50.57
2019-01-25T16:57:21.141Z,48.50
2019-01-25T17:00:01.725Z,43.00
2019-01-25T17:02:30.201Z,52.70
2019-01-25T17:05:18.271Z,49.50
2019-01-25T17:07:58.829Z,40.90
2019-01-25T17:10:41.097Z,47.20
2019-01-25T17:13:21.620Z,46.93
2019-01-25T17:16:02.216Z,40.03
2019-01-25T17:18:42.664Z,44.03
2019-01-25T17:21:23.678Z,49.60
2019-01-25T17:24:04.578Z,51.97
2019-01-25T17:26:45.691Z,52.53
2019-01-25T17:29:26.545Z,49.00
2019-01-25T17:32:07.326Z,53.90
2019-01-25T17:34:48.241Z,58.80
2019-01-25T17:37:28.888Z,42.63
2019-01-25T17:40:09.847Z,53.83
2019-01-25T17:42:51.565Z,52.37
2019-01-25T17:45:32.645Z,46.97
2019-01-25T17:48:13.464Z,53.40
2019-01-25T17:50:54.274Z,53.60
2019-01-25T17:53:35.284Z,49.23
2019-01-25T17:56:15.980Z,52.37
2019-01-25T17:58:56.644Z,44.73
2019-01-25T18:01:37.645Z,43.37
2019-01-25T18:04:18.249Z,44.53
2019-01-25T18:06:58.901Z,41.80
2019-01-25T18:09:39.346Z,37.67
2019-01-25T18:12:20.444Z,45.07
2019-01-25T18:15:01.136Z,42.07
2019-01-25T18:17:42.126Z,38.23
2019-01-25T18:20:22.786Z,39.37
2019-01-25T18:23:03.092Z,38.47
2019-01-25T18:25:44.127Z,42.83
2019-01-25T18:28:25.068Z,30.80
2019-01-25T18:31:05.983Z,38.77
2019-01-25T18:33:46.606Z,36.93
2019-01-25T18:36:27.534Z,35.87
2019-01-25T18:39:08.217Z,35.77
2019-01-25T18:41:48.666Z,37.73
2019-01-25T18:44:29.640Z,35.90
2019-01-25T18:47:10.494Z,39.07
2019-01-25T18:49:51.060Z,38.23
2019-01-25T18:52:31.721Z,31.87
2019-01-25T18:55:12.259Z,23.63
2019-01-25T18:57:53.034Z,35.47
2019-01-25T19:00:33.898Z,36.70
2019-01-25T19:03:14.828Z,33.27
2019-01-25T19:05:55.485Z,34.73
2019-01-25T19:08:36.289Z,38.03
2019-01-25T19:11:17.008Z,34.07
2019-01-25T19:13:57.871Z,36.53
2019-01-25T19:16:38.299Z,27.83
2019-01-25T19:19:18.939Z,31.03
2019-01-25T19:21:59.854Z,31.67
2019-01-25T19:24:40.402Z,33.87
2019-01-25T19:27:21.158Z,29.70
2019-01-25T19:30:01.657Z,35.67
2019-01-25T19:32:42.617Z,32.80
2019-01-25T19:35:23.538Z,33.73
2019-01-25T19:38:04.098Z,32.83
2019-01-25T19:40:44.837Z,32.73
2019-01-25T19:43:25.913Z,34.23
2019-01-25T19:46:06.538Z,30.80
2019-01-25T19:48:48.074Z,33.90
2019-01-25T19:51:28.576Z,32.40
2019-01-25T19:54:09.527Z,32.93
2019-01-25T19:56:50.425Z,33.47
2019-01-25T19:59:31.137Z,33.07
2019-01-25T20:02:12.269Z,32.90
2019-01-25T20:04:52.650Z,29.87
2019-01-25T20:07:33.221Z,37.07
2019-01-25T20:10:13.821Z,32.87
2019-01-25T20:12:54.251Z,37.13
2019-01-25T20:15:35.298Z,41.30
2019-01-25T20:18:15.761Z,36.57
2019-01-25T20:20:56.234Z,40.73
2019-01-25T20:23:36.954Z,37.83
2019-01-25T20:26:17.437Z,35.43
2019-01-25T20:28:57.846Z,36.40
2019-01-25T20:31:38.880Z,40.13
2019-01-25T20:34:19.403Z,37.57
2019-01-25T20:37:00.300Z,44.43
2019-01-25T20:39:40.829Z,46.10
2019-01-25T20:42:21.493Z,44.97
2019-01-25T20:45:02.418Z,45.20
2019-01-25T20:47:43.587Z,47.73
2019-01-25T20:50:24.171Z,43.20
2019-01-25T20:53:05.163Z,53.73
2019-01-25T20:55:45.898Z,48.70
2019-01-25T20:58:26.832Z,53.63
2019-01-25T21:01:07.941Z,53.17
2019-01-25T21:03:48.728Z,55.47
2019-01-25T21:06:29.239Z,57.53
2019-01-25T21:09:09.854Z,59.80
2019-01-25T21:11:50.634Z,61.07
2019-01-25T21:14:31.444Z,58.27
2019-01-25T21:17:12.049Z,67.53
2019-01-25T21:19:52.482Z,58.67
2019-01-25T21:22:33.338Z,59.77
2019-01-25T21:25:14.155Z,76.13
2019-01-25T21:27:54.963Z,74.07
2019-01-25T21:30:35.883Z,73.83
2019-01-25T21:33:16.793Z,76.33
2019-01-25T21:35:57.317Z,80.87
2019-01-25T21:38:38.166Z,91.97
2019-01-25T21:41:18.840Z,78.37
2019-01-25T21:43:59.276Z,90.93
2019-01-25T21:46:40.619Z,96.93
2019-01-25T21:49:21.063Z,90.97
2019-01-25T21:52:01.731Z,105.03
2019-01-25T21:54:42.672Z,95.83
2019-01-25T21:57:23.702Z,91.40
2019-01-25T22:00:04.694Z,85.97
2019-01-25T22:02:45.273Z,85.27
2019-01-25T22:05:26.038Z,92.73
2019-01-25T22:08:06.934Z,93.13
2019-01-25T22:10:48.015Z,92.33
2019-01-25T22:13:29.029Z,98.37
2019-01-25T22:16:09.781Z,88.10
2019-01-25T22:18:51.042Z,89.93
2019-01-25T22:21:19.631Z,92.20
2019-01-25T22:23:48.151Z,85.77
2019-01-25T22:26:16.739Z,92.40
2019-01-25T22:28:45.295Z,90.00
2019-01-25T22:31:13.924Z,93.40
2019-01-25T22:33:42.396Z,86.03
2019-01-25T22:36:10.940Z,78.87
2019-01-25T22:38:39.405Z,85.10
2019-01-25T22:41:07.897Z,85.87
2019-01-25T22:43:36.503Z,90.97
2019-01-25T22:46:05.306Z,97.77
2019-01-25T22:48:33.827Z,89.60
2019-01-25T22:51:02.320Z,88.67
2019-01-25T22:53:30.790Z,83.73
2019-01-25T22:55:59.275Z,80.17
2019-01-25T22:58:27.739Z,81.47
2019-01-25T23:01:04.977Z,81.57
2019-01-25T23:03:36.587Z,83.83
2019-01-25T23:06:30.865Z,80.83
2019-01-25T23:09:04.348Z,76.33
2019-01-25T23:11:32.980Z,78.10
2019-01-25T23:14:01.535Z,86.07
2019-01-25T23:16:29.994Z,76.63
2019-01-25T23:18:58.457Z,78.13
2019-01-25T23:21:26.947Z,73.67
2019-01-25T23:23:55.459Z,68.60
2019-01-25T23:26:23.907Z,78.77
2019-01-25T23:28:52.424Z,70.97
2019-01-25T23:31:20.940Z,66.43
2019-01-25T23:33:49.384Z,70.43
2019-01-25T23:36:17.938Z,61.77
2019-01-25T23:38:46.415Z,63.70
2019-01-25T23:41:15.021Z,61.10
2019-01-25T23:43:43.493Z,66.87
2019-01-25T23:46:13.913Z,61.10
2019-01-25T23:48:42.336Z,67.57
2019-01-25T23:51:10.806Z,60.00
2019-01-25T23:53:39.428Z,60.67
2019-01-25T23:56:07.979Z,72.93
2019-01-25T23:58:36.579Z,73.57
